sensor_id;sensor_type;location;lat;lon;timestamp;pressure;altitude;pressure_sealevel;temperature;humidity
12987;BME280;58897;51.960;5.582;2024-02-23T00:01:07;98452.03;;;5.05;100.00
12987;BME280;58897;51.960;5.582;2024-02-23T00:03:35;98457.78;;;4.87;100.00
12987;BME280;58897;51.960;5.582;2024-02-23T00:06:03;98476.59;;;4.94;100.00
12987;BME280;58897;51.960;5.582;2024-02-23T00:08:30;98482.94;;;4.93;100.00
12987;BME280;58897;51.960;5.582;2024-02-23T00:10:57;98463.59;;;5.06;100.00
12987;BME280;58897;51.960;5.582;2024-02-23T00:13:24;98472.13;;;5.01;100.00
12987;BME280;58897;51.960;5.582;2024-02-23T00:15:50;98462.75;;;5.05;100.00
12987;BME280;58897;51.960;5.582;2024-02-23T00:18:18;98460.59;;;5.00;100.00
12987;BME280;58897;51.960;5.582;2024-02-23T00:20:46;98468.16;;;5.12;100.00
12987;BME280;58897;51.960;5.582;2024-02-23T00:23:13;98475.47;;;5.18;100.00
12987;BME280;58897;51.960;5.582;2024-02-23T00:25:41;98481.47;;;5.20;100.00
12987;BME280;58897;51.960;5.582;2024-02-23T00:28:08;98482.66;;;5.17;100.00
12987;BME280;58897;51.960;5.582;2024-02-23T00:30:35;98499.91;;;5.15;100.00
12987;BME280;58897;51.960;5.582;2024-02-23T00:33:02;98486.53;;;5.15;100.00
12987;BME280;58897;51.960;5.582;2024-02-23T00:35:29;98499.81;;;5.23;100.00
12987;BME280;58897;51.960;5.582;2024-02-23T00:37:56;98506.66;;;5.11;100.00
12987;BME280;58897;51.960;5.582;2024-02-23T00:40:23;98519.03;;;4.97;100.00
12987;BME280;58897;51.960;5.582;2024-02-23T00:42:50;98537.06;;;4.80;100.00
12987;BME280;58897;51.960;5.582;2024-02-23T00:45:16;98527.50;;;4.71;100.00
12987;BME280;58897;51.960;5.582;2024-02-23T00:47:43;98531.03;;;4.49;100.00
12987;BME280;58897;51.960;5.582;2024-02-23T00:50:10;98510.88;;;4.61;100.00
12987;BME280;58897;51.960;5.582;2024-02-23T00:52:37;98518.53;;;4.27;100.00
12987;BME280;58897;51.960;5.582;2024-02-23T00:55:04;98515.09;;;4.33;100.00
12987;BME280;58897;51.960;5.582;2024-02-23T00:57:30;98536.25;;;4.20;100.00
12987;BME280;58897;51.960;5.582;2024-02-23T00:59:57;98528.75;;;4.38;100.00
12987;BME280;58897;51.960;5.582;2024-02-23T01:02:24;98535.06;;;4.22;100.00
12987;BME280;58897;51.960;5.582;2024-02-23T01:04:51;98544.97;;;4.22;100.00
12987;BME280;58897;51.960;5.582;2024-02-23T01:07:23;98535.97;;;4.38;100.00
12987;BME280;58897;51.960;5.582;2024-02-23T01:09:49;98543.03;;;4.53;100.00
12987;BME280;58897;51.960;5.582;2024-02-23T01:12:16;98538.97;;;4.57;100.00
12987;BME280;58897;51.960;5.582;2024-02-23T01:14:43;98548.13;;;4.63;100.00
12987;BME280;58897;51.960;5.582;2024-02-23T01:17:09;98553.75;;;4.68;100.00
12987;BME280;58897;51.960;5.582;2024-02-23T01:19:36;98554.00;;;4.58;100.00
12987;BME280;58897;51.960;5.582;2024-02-23T01:22:03;98573.19;;;4.62;100.00
12987;BME280;58897;51.960;5.582;2024-02-23T01:24:30;98563.28;;;4.48;100.00
12987;BME280;58897;51.960;5.582;2024-02-23T01:26:56;98563.59;;;4.53;100.00
12987;BME280;58897;51.960;5.582;2024-02-23T01:29:25;98568.56;;;4.56;100.00
12987;BME280;58897;51.960;5.582;2024-02-23T01:31:52;98578.81;;;4.67;100.00
12987;BME280;58897;51.960;5.582;2024-02-23T01:34:21;98574.38;;;4.59;100.00
12987;BME280;58897;51.960;5.582;2024-02-23T01:36:48;98587.03;;;4.65;100.00
12987;BME280;58897;51.960;5.582;2024-02-23T01:39:15;98579.91;;;4.58;100.00
12987;BME280;58897;51.960;5.582;2024-02-23T01:41:42;98597.69;;;4.51;100.00
12987;BME280;58897;51.960;5.582;2024-02-23T01:44:11;98583.44;;;4.58;100.00
12987;BME280;58897;51.960;5.582;2024-02-23T01:46:37;98592.81;;;4.54;100.00
12987;BME280;58897;51.960;5.582;2024-02-23T01:49:06;98593.47;;;4.56;100.00
12987;BME280;58897;51.960;5.582;2024-02-23T01:51:34;98590.81;;;4.56;100.00
12987;BME280;58897;51.960;5.582;2024-02-23T01:54:02;98592.75;;;4.62;100.00
12987;BME280;58897;51.960;5.582;2024-02-23T01:56:30;98584.78;;;4.54;100.00
12987;BME280;58897;51.960;5.582;2024-02-23T01:58:58;98590.81;;;4.56;100.00
12987;BME280;58897;51.960;5.582;2024-02-23T02:01:25;98593.47;;;4.56;100.00
12987;BME280;58897;51.960;5.582;2024-02-23T02:03:52;98597.44;;;4.60;100.00
12987;BME280;58897;51.960;5.582;2024-02-23T02:06:19;98600.66;;;4.56;100.00
12987;BME280;58897;51.960;5.582;2024-02-23T02:08:46;98602.97;;;4.59;100.00
12987;BME280;58897;51.960;5.582;2024-02-23T02:11:12;98598.28;;;4.61;100.00
12987;BME280;58897;51.960;5.582;2024-02-23T02:13:39;98604.19;;;4.56;100.00
12987;BME280;58897;51.960;5.582;2024-02-23T02:16:06;98604.59;;;4.45;100.00
12987;BME280;58897;51.960;5.582;2024-02-23T02:18:32;98601.59;;;4.63;100.00
12987;BME280;58897;51.960;5.582;2024-02-23T02:20:59;98616.91;;;4.46;100.00
12987;BME280;58897;51.960;5.582;2024-02-23T02:23:26;98611.41;;;4.48;100.00
12987;BME280;58897;51.960;5.582;2024-02-23T02:25:56;98605.16;;;4.55;100.00
12987;BME280;58897;51.960;5.582;2024-02-23T02:28:23;98612.59;;;4.45;100.00
12987;BME280;58897;51.960;5.582;2024-02-23T02:30:53;98613.25;;;4.47;100.00
12987;BME280;58897;51.960;5.582;2024-02-23T02:33:21;98627.25;;;4.49;100.00
12987;BME280;58897;51.960;5.582;2024-02-23T02:35:48;98630.47;;;4.45;100.00
12987;BME280;58897;51.960;5.582;2024-02-23T02:38:16;98618.41;;;4.49;100.00
12987;BME280;58897;51.960;5.582;2024-02-23T02:40:43;98624.78;;;4.48;100.00
12987;BME280;58897;51.960;5.582;2024-02-23T02:43:09;98633.94;;;4.53;100.00
12987;BME280;58897;51.960;5.582;2024-02-23T02:45:37;98619.09;;;4.51;100.00
12987;BME280;58897;51.960;5.582;2024-02-23T02:48:04;98628.16;;;4.42;100.00
12987;BME280;58897;51.960;5.582;2024-02-23T02:50:31;98626.28;;;4.50;100.00
12987;BME280;58897;51.960;5.582;2024-02-23T02:52:58;98618.78;;;4.46;100.00
12987;BME280;58897;51.960;5.582;2024-02-23T02:55:24;98628.66;;;4.45;100.00
12987;BME280;58897;51.960;5.582;2024-02-23T02:57:51;98629.84;;;4.43;100.00
12987;BME280;58897;51.960;5.582;2024-02-23T03:00:18;98619.97;;;4.43;100.00
12987;BME280;58897;51.960;5.582;2024-02-23T03:02:45;98628.00;;;4.43;100.00
12987;BME280;58897;51.960;5.582;2024-02-23T03:05:11;98634.34;;;4.42;100.00
12987;BME280;58897;51.960;5.582;2024-02-23T03:07:38;98632.38;;;4.36;100.00
12987;BME280;58897;51.960;5.582;2024-02-23T03:10:05;98639.03;;;4.40;100.00
12987;BME280;58897;51.960;5.582;2024-02-23T03:12:32;98630.66;;;4.43;100.00
12987;BME280;58897;51.960;5.582;2024-02-23T03:14:58;98643.78;;;4.30;100.00
12987;BME280;58897;51.960;5.582;2024-02-23T03:17:25;98642.91;;;4.38;100.00
12987;BME280;58897;51.960;5.582;2024-02-23T03:19:52;98637.84;;;4.43;100.00
12987;BME280;58897;51.960;5.582;2024-02-23T03:22:19;98640.56;;;4.34;100.00
12987;BME280;58897;51.960;5.582;2024-02-23T03:24:46;98639.19;;;4.38;100.00
12987;BME280;58897;51.960;5.582;2024-02-23T03:27:12;98643.59;;;4.31;100.00
12987;BME280;58897;51.960;5.582;2024-02-23T03:29:39;98657.91;;;4.38;100.00
12987;BME280;58897;51.960;5.582;2024-02-23T03:32:07;98663.56;;;4.44;100.00
12987;BME280;58897;51.960;5.582;2024-02-23T03:34:34;98656.88;;;4.48;100.00
12987;BME280;58897;51.960;5.582;2024-02-23T03:37:01;98659.41;;;4.41;100.00
12987;BME280;58897;51.960;5.582;2024-02-23T03:39:29;98661.25;;;4.41;100.00
12987;BME280;58897;51.960;5.582;2024-02-23T03:41:55;98660.94;;;4.35;100.00
12987;BME280;58897;51.960;5.582;2024-02-23T03:44:22;98662.59;;;4.36;100.00
12987;BME280;58897;51.960;5.582;2024-02-23T03:46:49;98658.94;;;4.38;100.00
12987;BME280;58897;51.960;5.582;2024-02-23T03:49:16;98659.81;;;4.30;100.00
12987;BME280;58897;51.960;5.582;2024-02-23T03:51:43;98661.44;;;4.39;100.00
12987;BME280;58897;51.960;5.582;2024-02-23T03:54:09;98673.00;;;4.31;100.00
12987;BME280;58897;51.960;5.582;2024-02-23T03:56:39;98679.47;;;4.37;100.00
12987;BME280;58897;51.960;5.582;2024-02-23T03:59:07;98674.78;;;4.39;100.00
12987;BME280;58897;51.960;5.582;2024-02-23T04:01:36;98673.44;;;4.43;100.00
12987;BME280;58897;51.960;5.582;2024-02-23T04:04:04;98674.63;;;4.41;100.00
12987;BME280;58897;51.960;5.582;2024-02-23T04:06:31;98683.47;;;4.41;100.00
12987;BME280;58897;51.960;5.582;2024-02-23T04:08:58;98673.31;;;4.36;100.00
12987;BME280;58897;51.960;5.582;2024-02-23T04:11:24;98677.81;;;4.36;100.00
12987;BME280;58897;51.960;5.582;2024-02-23T04:13:51;98678.66;;;4.36;100.00
12987;BME280;58897;51.960;5.582;2024-02-23T04:16:22;98681.03;;;4.31;100.00
12987;BME280;58897;51.960;5.582;2024-02-23T04:18:50;98688.69;;;4.34;100.00
12987;BME280;58897;51.960;5.582;2024-02-23T04:21:17;98688.88;;;4.25;100.00
12987;BME280;58897;51.960;5.582;2024-02-23T04:23:43;98690.88;;;4.31;100.00
12987;BME280;58897;51.960;5.582;2024-02-23T04:26:10;98707.25;;;4.28;100.00
12987;BME280;58897;51.960;5.582;2024-02-23T04:28:40;98701.22;;;4.34;100.00
12987;BME280;58897;51.960;5.582;2024-02-23T04:31:10;98707.72;;;4.40;100.00
12987;BME280;58897;51.960;5.582;2024-02-23T04:33:37;98700.69;;;4.38;100.00
12987;BME280;58897;51.960;5.582;2024-02-23T04:36:05;98711.88;;;4.42;100.00
12987;BME280;58897;51.960;5.582;2024-02-23T04:38:32;98708.00;;;4.45;100.00
12987;BME280;58897;51.960;5.582;2024-02-23T04:41:03;98708.84;;;4.45;100.00
12987;BME280;58897;51.960;5.582;2024-02-23T04:43:31;98710.69;;;4.45;100.00
12987;BME280;58897;51.960;5.582;2024-02-23T04:45:58;98717.28;;;4.57;100.00
12987;BME280;58897;51.960;5.582;2024-02-23T04:48:25;98708.66;;;4.47;100.00
12987;BME280;58897;51.960;5.582;2024-02-23T04:50:51;98722.81;;;4.55;100.00
12987;BME280;58897;51.960;5.582;2024-02-23T04:53:18;98728.66;;;4.59;100.00
12987;BME280;58897;51.960;5.582;2024-02-23T04:55:45;98727.81;;;4.58;100.00
12987;BME280;58897;51.960;5.582;2024-02-23T04:58:12;98725.31;;;4.57;100.00
12987;BME280;58897;51.960;5.582;2024-02-23T05:00:39;98711.78;;;4.58;100.00
12987;BME280;58897;51.960;5.582;2024-02-23T05:03:06;98728.47;;;4.60;100.00
12987;BME280;58897;51.960;5.582;2024-02-23T05:05:36;98727.47;;;4.61;100.00
12987;BME280;58897;51.960;5.582;2024-02-23T05:08:03;98726.75;;;4.67;100.00
12987;BME280;58897;51.960;5.582;2024-02-23T05:10:30;98732.09;;;4.67;100.00
12987;BME280;58897;51.960;5.582;2024-02-23T05:12:56;98723.56;;;4.72;100.00
12987;BME280;58897;51.960;5.582;2024-02-23T05:15:23;98719.56;;;4.68;100.00
12987;BME280;58897;51.960;5.582;2024-02-23T05:17:50;98724.22;;;4.74;100.00
12987;BME280;58897;51.960;5.582;2024-02-23T05:20:16;98722.00;;;4.77;100.00
12987;BME280;58897;51.960;5.582;2024-02-23T05:22:43;98729.13;;;4.85;100.00
12987;BME280;58897;51.960;5.582;2024-02-23T05:25:09;98725.84;;;4.75;100.00
12987;BME280;58897;51.960;5.582;2024-02-23T05:27:36;98721.53;;;4.74;100.00
12987;BME280;58897;51.960;5.582;2024-02-23T05:30:03;98720.50;;;4.75;100.00
12987;BME280;58897;51.960;5.582;2024-02-23T05:32:29;98722.19;;;4.76;100.00
12987;BME280;58897;51.960;5.582;2024-02-23T05:34:56;98714.28;;;4.82;100.00
12987;BME280;58897;51.960;5.582;2024-02-23T05:37:24;98711.44;;;4.84;100.00
12987;BME280;58897;51.960;5.582;2024-02-23T05:39:50;98713.91;;;4.85;100.00
12987;BME280;58897;51.960;5.582;2024-02-23T05:42:17;98708.13;;;4.82;100.00
12987;BME280;58897;51.960;5.582;2024-02-23T05:44:44;98716.59;;;4.85;100.00
12987;BME280;58897;51.960;5.582;2024-02-23T05:47:11;98722.78;;;4.86;100.00
12987;BME280;58897;51.960;5.582;2024-02-23T05:49:40;98708.41;;;4.87;100.00
12987;BME280;58897;51.960;5.582;2024-02-23T05:52:07;98720.47;;;4.83;100.00
12987;BME280;58897;51.960;5.582;2024-02-23T05:54:33;98726.47;;;4.85;100.00
12987;BME280;58897;51.960;5.582;2024-02-23T05:57:00;98712.88;;;4.94;100.00
12987;BME280;58897;51.960;5.582;2024-02-23T05:59:27;98708.50;;;4.93;100.00
12987;BME280;58897;51.960;5.582;2024-02-23T06:01:54;98736.75;;;4.96;100.00
12987;BME280;58897;51.960;5.582;2024-02-23T06:04:23;98717.28;;;4.87;100.00
12987;BME280;58897;51.960;5.582;2024-02-23T06:06:50;98725.59;;;4.92;100.00
12987;BME280;58897;51.960;5.582;2024-02-23T06:09:17;98717.28;;;4.87;100.00
12987;BME280;58897;51.960;5.582;2024-02-23T06:11:45;98713.22;;;4.91;100.00
12987;BME280;58897;51.960;5.582;2024-02-23T06:14:12;98726.94;;;4.88;100.00
12987;BME280;58897;51.960;5.582;2024-02-23T06:16:39;98715.41;;;4.88;100.00
12987;BME280;58897;51.960;5.582;2024-02-23T06:19:07;98718.09;;;4.88;100.00
12987;BME280;58897;51.960;5.582;2024-02-23T06:21:33;98717.44;;;4.86;100.00
12987;BME280;58897;51.960;5.582;2024-02-23T06:24:00;98722.53;;;4.95;100.00
12987;BME280;58897;51.960;5.582;2024-02-23T06:26:26;98722.91;;;4.92;100.00
12987;BME280;58897;51.960;5.582;2024-02-23T06:28:53;98735.16;;;4.87;100.00
12987;BME280;58897;51.960;5.582;2024-02-23T06:31:20;98733.44;;;4.94;100.00
12987;BME280;58897;51.960;5.582;2024-02-23T06:33:46;98726.69;;;4.98;100.00
12987;BME280;58897;51.960;5.582;2024-02-23T06:36:16;98716.53;;;4.93;100.00
12987;BME280;58897;51.960;5.582;2024-02-23T06:38:43;98735.25;;;4.93;100.00
12987;BME280;58897;51.960;5.582;2024-02-23T06:41:11;98730.94;;;4.92;100.00
12987;BME280;58897;51.960;5.582;2024-02-23T06:43:38;98731.41;;;4.96;100.00
12987;BME280;58897;51.960;5.582;2024-02-23T06:46:06;98729.22;;;4.99;100.00
12987;BME280;58897;51.960;5.582;2024-02-23T06:48:37;98729.22;;;4.99;100.00
12987;BME280;58897;51.960;5.582;2024-02-23T06:51:07;98721.84;;;5.02;100.00
12987;BME280;58897;51.960;5.582;2024-02-23T06:53:37;98718.50;;;4.99;100.00
12987;BME280;58897;51.960;5.582;2024-02-23T06:56:05;98722.31;;;5.05;100.00
12987;BME280;58897;51.960;5.582;2024-02-23T06:58:31;98726.63;;;5.06;100.00
12987;BME280;58897;51.960;5.582;2024-02-23T07:00:58;98722.19;;;4.98;100.00
12987;BME280;58897;51.960;5.582;2024-02-23T07:03:25;98711.41;;;5.07;100.00
12987;BME280;58897;51.960;5.582;2024-02-23T07:05:52;98720.94;;;5.09;100.00
12987;BME280;58897;51.960;5.582;2024-02-23T07:08:18;98716.06;;;5.13;100.00
12987;BME280;58897;51.960;5.582;2024-02-23T07:10:45;98716.72;;;5.15;100.00
12987;BME280;58897;51.960;5.582;2024-02-23T07:13:12;98714.69;;;5.17;100.00
12987;BME280;58897;51.960;5.582;2024-02-23T07:15:38;98722.06;;;5.15;100.00
12987;BME280;58897;51.960;5.582;2024-02-23T07:18:05;98709.63;;;5.22;100.00
12987;BME280;58897;51.960;5.582;2024-02-23T07:20:36;98699.94;;;5.21;100.00
12987;BME280;58897;51.960;5.582;2024-02-23T07:23:03;98707.91;;;5.29;100.00
12987;BME280;58897;51.960;5.582;2024-02-23T07:25:30;98703.75;;;5.26;100.00
12987;BME280;58897;51.960;5.582;2024-02-23T07:27:57;98713.97;;;5.23;100.00
12987;BME280;58897;51.960;5.582;2024-02-23T07:30:24;98710.28;;;5.24;100.00
12987;BME280;58897;51.960;5.582;2024-02-23T07:32:51;98705.38;;;5.27;100.00
12987;BME280;58897;51.960;5.582;2024-02-23T07:35:19;98704.03;;;5.31;100.00
12987;BME280;58897;51.960;5.582;2024-02-23T07:37:46;98712.56;;;5.27;100.00
12987;BME280;58897;51.960;5.582;2024-02-23T07:40:13;98723.47;;;5.25;100.00
12987;BME280;58897;51.960;5.582;2024-02-23T07:42:44;98713.34;;;5.35;100.00
12987;BME280;58897;51.960;5.582;2024-02-23T07:45:11;98725.44;;;5.31;100.00
12987;BME280;58897;51.960;5.582;2024-02-23T07:47:37;98709.19;;;5.33;100.00
12987;BME280;58897;51.960;5.582;2024-02-23T07:50:04;98710.94;;;5.40;100.00
12987;BME280;58897;51.960;5.582;2024-02-23T07:52:31;98720.19;;;5.38;100.00
12987;BME280;58897;51.960;5.582;2024-02-23T07:54:58;98705.16;;;5.37;100.00
12987;BME280;58897;51.960;5.582;2024-02-23T07:57:26;98702.38;;;5.45;100.00
12987;BME280;58897;51.960;5.582;2024-02-23T07:59:53;98701.38;;;5.46;100.00
12987;BME280;58897;51.960;5.582;2024-02-23T08:02:19;98709.41;;;5.46;100.00
12987;BME280;58897;51.960;5.582;2024-02-23T08:04:46;98702.19;;;5.46;100.00
12987;BME280;58897;51.960;5.582;2024-02-23T08:07:14;98699.63;;;5.53;100.00
12987;BME280;58897;51.960;5.582;2024-02-23T08:09:41;98695.84;;;5.47;100.00
12987;BME280;58897;51.960;5.582;2024-02-23T08:12:08;98710.03;;;5.48;100.00
12987;BME280;58897;51.960;5.582;2024-02-23T08:14:35;98711.91;;;5.47;100.00
12987;BME280;58897;51.960;5.582;2024-02-23T08:17:01;98708.69;;;5.52;100.00
12987;BME280;58897;51.960;5.582;2024-02-23T08:19:28;98705.88;;;5.45;100.00
12987;BME280;58897;51.960;5.582;2024-02-23T08:21:55;98694.81;;;5.48;100.00
12987;BME280;58897;51.960;5.582;2024-02-23T08:24:21;98699.91;;;5.58;100.00
12987;BME280;58897;51.960;5.582;2024-02-23T08:26:49;98692.63;;;5.67;100.00
12987;BME280;58897;51.960;5.582;2024-02-23T08:29:15;98692.06;;;5.71;100.00
12987;BME280;58897;51.960;5.582;2024-02-23T08:31:42;98682.81;;;5.74;100.00
12987;BME280;58897;51.960;5.582;2024-02-23T08:34:09;98674.88;;;5.80;100.00
12987;BME280;58897;51.960;5.582;2024-02-23T08:36:36;98684.50;;;5.89;100.00
12987;BME280;58897;51.960;5.582;2024-02-23T08:39:02;98670.53;;;5.79;100.00
12987;BME280;58897;51.960;5.582;2024-02-23T08:41:29;98687.81;;;5.77;100.00
12987;BME280;58897;51.960;5.582;2024-02-23T08:43:56;98675.09;;;5.79;100.00
12987;BME280;58897;51.960;5.582;2024-02-23T08:46:23;98662.22;;;5.74;100.00
12987;BME280;58897;51.960;5.582;2024-02-23T08:48:50;98663.53;;;5.78;100.00
12987;BME280;58897;51.960;5.582;2024-02-23T08:51:16;98674.97;;;5.72;100.00
12987;BME280;58897;51.960;5.582;2024-02-23T08:53:43;98667.13;;;5.71;100.00
12987;BME280;58897;51.960;5.582;2024-02-23T08:56:11;98670.19;;;5.68;100.00
12987;BME280;58897;51.960;5.582;2024-02-23T08:58:38;98669.97;;;5.69;100.00
12987;BME280;58897;51.960;5.582;2024-02-23T09:01:05;98670.63;;;5.71;100.00
12987;BME280;58897;51.960;5.582;2024-02-23T09:03:31;98671.72;;;5.77;100.00
12987;BME280;58897;51.960;5.582;2024-02-23T09:05:58;98678.28;;;5.74;100.00
12987;BME280;58897;51.960;5.582;2024-02-23T09:08:25;98669.25;;;5.75;100.00
12987;BME280;58897;51.960;5.582;2024-02-23T09:10:52;98665.16;;;5.79;100.00
12987;BME280;58897;51.960;5.582;2024-02-23T09:13:19;98678.84;;;5.84;100.00
12987;BME280;58897;51.960;5.582;2024-02-23T09:15:45;98680.88;;;5.82;100.00
12987;BME280;58897;51.960;5.582;2024-02-23T09:18:12;98681.47;;;5.92;100.00
12987;BME280;58897;51.960;5.582;2024-02-23T09:20:39;98676.38;;;5.97;100.00
12987;BME280;58897;51.960;5.582;2024-02-23T09:23:06;98666.66;;;6.11;100.00
12987;BME280;58897;51.960;5.582;2024-02-23T09:25:32;98682.84;;;6.03;100.00
12987;BME280;58897;51.960;5.582;2024-02-23T09:27:59;98672.88;;;5.97;100.00
12987;BME280;58897;51.960;5.582;2024-02-23T09:30:25;98670.06;;;6.05;100.00
12987;BME280;58897;51.960;5.582;2024-02-23T09:32:52;98676.09;;;6.07;100.00
12987;BME280;58897;51.960;5.582;2024-02-23T09:35:19;98672.66;;;6.13;100.00
12987;BME280;58897;51.960;5.582;2024-02-23T09:37:46;98683.22;;;6.14;100.00
12987;BME280;58897;51.960;5.582;2024-02-23T09:40:14;98692.25;;;6.13;100.00
12987;BME280;58897;51.960;5.582;2024-02-23T09:42:42;98679.75;;;6.20;100.00
12987;BME280;58897;51.960;5.582;2024-02-23T09:45:10;98675.13;;;6.29;100.00
12987;BME280;58897;51.960;5.582;2024-02-23T09:47:38;98694.56;;;6.16;100.00
12987;BME280;58897;51.960;5.582;2024-02-23T09:50:06;98688.66;;;6.06;100.00
12987;BME280;58897;51.960;5.582;2024-02-23T09:52:34;98695.81;;;5.99;100.00
12987;BME280;58897;51.960;5.582;2024-02-23T09:55:01;98711.50;;;5.88;100.00
12987;BME280;58897;51.960;5.582;2024-02-23T09:57:30;98724.31;;;5.78;100.00
12987;BME280;58897;51.960;5.582;2024-02-23T09:59:57;98736.72;;;5.79;100.00
12987;BME280;58897;51.960;5.582;2024-02-23T10:02:25;98732.34;;;5.78;100.00
12987;BME280;58897;51.960;5.582;2024-02-23T10:04:54;98730.69;;;5.77;100.00
12987;BME280;58897;51.960;5.582;2024-02-23T10:07:23;98750.09;;;5.79;100.00
12987;BME280;58897;51.960;5.582;2024-02-23T10:09:50;98739.91;;;5.74;100.00
12987;BME280;58897;51.960;5.582;2024-02-23T10:12:16;98746.94;;;5.75;100.00
12987;BME280;58897;51.960;5.582;2024-02-23T10:14:44;98746.22;;;5.81;100.00
12987;BME280;58897;51.960;5.582;2024-02-23T10:17:11;98739.06;;;5.74;100.00
12987;BME280;58897;51.960;5.582;2024-02-23T10:19:38;98742.19;;;5.85;100.00
12987;BME280;58897;51.960;5.582;2024-02-23T10:22:05;98739.59;;;5.92;100.00
12987;BME280;58897;51.960;5.582;2024-02-23T10:24:31;98728.06;;;5.91;100.00
12987;BME280;58897;51.960;5.582;2024-02-23T10:26:58;98752.97;;;5.92;100.00
12987;BME280;58897;51.960;5.582;2024-02-23T10:29:25;98740.06;;;5.95;100.00
12987;BME280;58897;51.960;5.582;2024-02-23T10:31:56;98740.25;;;6.08;100.00
12987;BME280;58897;51.960;5.582;2024-02-23T10:34:24;98746.72;;;5.99;100.00
12987;BME280;58897;51.960;5.582;2024-02-23T10:36:52;98738.75;;;6.06;100.00
12987;BME280;58897;51.960;5.582;2024-02-23T10:39:24;98741.91;;;6.09;100.00
12987;BME280;58897;51.960;5.582;2024-02-23T10:42:03;98749.41;;;6.14;100.00
12987;BME280;58897;51.960;5.582;2024-02-23T10:44:31;98756.16;;;6.10;100.00
12987;BME280;58897;51.960;5.582;2024-02-23T10:46:58;98758.06;;;6.16;100.00
12987;BME280;58897;51.960;5.582;2024-02-23T10:49:27;98751.16;;;6.21;100.00
12987;BME280;58897;51.960;5.582;2024-02-23T10:51:54;98761.50;;;6.25;100.00
12987;BME280;58897;51.960;5.582;2024-02-23T10:54:21;98753.66;;;6.23;100.00
12987;BME280;58897;51.960;5.582;2024-02-23T10:56:52;98763.97;;;6.26;100.00
12987;BME280;58897;51.960;5.582;2024-02-23T10:59:19;98762.25;;;6.33;100.00
12987;BME280;58897;51.960;5.582;2024-02-23T11:01:50;98765.09;;;6.32;100.00
12987;BME280;58897;51.960;5.582;2024-02-23T11:04:19;98762.63;;;6.30;100.00
12987;BME280;58897;51.960;5.582;2024-02-23T11:06:54;98768.25;;;6.35;100.00
12987;BME280;58897;51.960;5.582;2024-02-23T11:09:26;98772.13;;;6.33;100.00
12987;BME280;58897;51.960;5.582;2024-02-23T11:11:57;98768.16;;;6.29;100.00
12987;BME280;58897;51.960;5.582;2024-02-23T11:14:34;98772.97;;;6.33;100.00
12987;BME280;58897;51.960;5.582;2024-02-23T11:17:02;98773.78;;;6.34;100.00
12987;BME280;58897;51.960;5.582;2024-02-23T11:19:33;98779.34;;;6.32;100.00
12987;BME280;58897;51.960;5.582;2024-02-23T11:22:01;98775.19;;;6.30;100.00
12987;BME280;58897;51.960;5.582;2024-02-23T11:24:30;98768.03;;;6.37;100.00
12987;BME280;58897;51.960;5.582;2024-02-23T11:27:00;98777.13;;;6.36;100.00
12987;BME280;58897;51.960;5.582;2024-02-23T11:29:34;98779.59;;;6.52;100.00
12987;BME280;58897;51.960;5.582;2024-02-23T11:32:03;98777.75;;;6.52;100.00
12987;BME280;58897;51.960;5.582;2024-02-23T11:34:30;98782.94;;;6.54;100.00
12987;BME280;58897;51.960;5.582;2024-02-23T11:36:57;98785.25;;;6.57;100.00
12987;BME280;58897;51.960;5.582;2024-02-23T11:39:26;98782.63;;;6.63;100.00
12987;BME280;58897;51.960;5.582;2024-02-23T11:41:53;98786.41;;;6.69;100.00
12987;BME280;58897;51.960;5.582;2024-02-23T11:44:20;98782.72;;;6.70;100.00
12987;BME280;58897;51.960;5.582;2024-02-23T11:46:47;98789.44;;;6.80;100.00
12987;BME280;58897;51.960;5.582;2024-02-23T11:49:14;98792.13;;;6.80;100.00
12987;BME280;58897;51.960;5.582;2024-02-23T11:51:42;98793.22;;;6.86;100.00
12987;BME280;58897;51.960;5.582;2024-02-23T11:54:09;98809.16;;;6.88;100.00
12987;BME280;58897;51.960;5.582;2024-02-23T11:56:35;98776.06;;;7.02;100.00
12987;BME280;58897;51.960;5.582;2024-02-23T11:59:02;98797.78;;;6.86;100.00
12987;BME280;58897;51.960;5.582;2024-02-23T12:01:30;98802.75;;;6.89;100.00
12987;BME280;58897;51.960;5.582;2024-02-23T12:03:57;98798.94;;;6.98;100.00
12987;BME280;58897;51.960;5.582;2024-02-23T12:06:24;98792.97;;;7.17;100.00
12987;BME280;58897;51.960;5.582;2024-02-23T12:08:54;98793.00;;;7.23;100.00
12987;BME280;58897;51.960;5.582;2024-02-23T12:11:20;98788.66;;;7.65;100.00
12987;BME280;58897;51.960;5.582;2024-02-23T12:13:47;98772.66;;;7.35;100.00
12987;BME280;58897;51.960;5.582;2024-02-23T12:16:14;98791.91;;;7.18;100.00
12987;BME280;58897;51.960;5.582;2024-02-23T12:18:41;98798.13;;;7.18;100.00
12987;BME280;58897;51.960;5.582;2024-02-23T12:21:08;98800.47;;;7.07;100.00
12987;BME280;58897;51.960;5.582;2024-02-23T12:23:43;98790.66;;;7.14;100.00
12987;BME280;58897;51.960;5.582;2024-02-23T12:26:12;98796.44;;;7.17;100.00
12987;BME280;58897;51.960;5.582;2024-02-23T12:28:40;98799.75;;;8.38;100.00
12987;BME280;58897;51.960;5.582;2024-02-23T12:31:07;98778.44;;;8.09;100.00
12987;BME280;58897;51.960;5.582;2024-02-23T12:33:35;98784.81;;;9.57;100.00
12987;BME280;58897;51.960;5.582;2024-02-23T12:36:04;98787.66;;;9.29;100.00
12987;BME280;58897;51.960;5.582;2024-02-23T12:38:31;98789.84;;;8.45;100.00
12987;BME280;58897;51.960;5.582;2024-02-23T12:40:59;98804.50;;;8.36;100.00
12987;BME280;58897;51.960;5.582;2024-02-23T12:43:26;98796.63;;;8.07;100.00
12987;BME280;58897;51.960;5.582;2024-02-23T12:45:54;98794.47;;;8.24;100.00
12987;BME280;58897;51.960;5.582;2024-02-23T12:48:21;98808.22;;;8.07;100.00
12987;BME280;58897;51.960;5.582;2024-02-23T12:50:49;98802.94;;;7.93;100.00
12987;BME280;58897;51.960;5.582;2024-02-23T12:53:36;98808.47;;;8.13;100.00
12987;BME280;58897;51.960;5.582;2024-02-23T12:56:08;98810.28;;;8.05;100.00
12987;BME280;58897;51.960;5.582;2024-02-23T12:58:35;98812.56;;;8.08;100.00
12987;BME280;58897;51.960;5.582;2024-02-23T13:01:02;98818.59;;;8.11;100.00